sensor_id;sensor_type;location;lat;lon;timestamp;pressure;altitude;pressure_sealevel;temperature;humidity
69689;BME280;56932;38.402;-96.176;2023-04-23T00:01:11;97885.21;;;22.80;20.76
69689;BME280;56932;38.402;-96.176;2023-04-23T00:03:36;97885.10;;;22.11;21.20
69689;BME280;56932;38.402;-96.176;2023-04-23T00:06:05;97885.59;;;22.58;21.03
69689;BME280;56932;38.402;-96.176;2023-04-23T00:08:28;97885.90;;;22.41;21.26
69689;BME280;56932;38.402;-96.176;2023-04-23T00:10:53;97885.01;;;22.01;21.66
69689;BME280;56932;38.402;-96.176;2023-04-23T00:13:18;97888.14;;;22.05;21.65
69689;BME280;56932;38.402;-96.176;2023-04-23T00:15:44;97880.39;;;22.41;21.33
69689;BME280;56932;38.402;-96.176;2023-04-23T00:18:09;97879.08;;;22.03;21.21
69689;BME280;56932;38.402;-96.176;2023-04-23T00:20:35;97878.96;;;22.53;20.93
69689;BME280;56932;38.402;-96.176;2023-04-23T00:23:00;97878.73;;;22.29;21.03
69689;BME280;56932;38.402;-96.176;2023-04-23T00:25:25;97875.47;;;22.43;21.07
69689;BME280;56932;38.402;-96.176;2023-04-23T00:27:51;97879.92;;;22.26;21.10
69689;BME280;56932;38.402;-96.176;2023-04-23T00:30:16;97881.74;;;21.99;20.61
69689;BME280;56932;38.402;-96.176;2023-04-23T00:32:42;97885.71;;;22.24;20.67
69689;BME280;56932;38.402;-96.176;2023-04-23T00:35:08;97885.95;;;22.39;20.96
69689;BME280;56932;38.402;-96.176;2023-04-23T00:37:33;97894.23;;;22.45;20.76
69689;BME280;56932;38.402;-96.176;2023-04-23T00:39:58;97900.14;;;22.28;21.02
69689;BME280;56932;38.402;-96.176;2023-04-23T00:42:24;97901.01;;;22.20;21.08
69689;BME280;56932;38.402;-96.176;2023-04-23T00:44:50;97900.14;;;22.27;21.10
69689;BME280;56932;38.402;-96.176;2023-04-23T00:47:15;97899.14;;;22.16;21.07
69689;BME280;56932;38.402;-96.176;2023-04-23T00:49:42;97896.80;;;22.62;20.87
69689;BME280;56932;38.402;-96.176;2023-04-23T00:52:06;97899.75;;;22.20;20.87
69689;BME280;56932;38.402;-96.176;2023-04-23T00:54:31;97901.46;;;22.16;21.18
69689;BME280;56932;38.402;-96.176;2023-04-23T00:56:57;97903.26;;;23.10;20.61
69689;BME280;56932;38.402;-96.176;2023-04-23T00:59:22;97903.78;;;22.03;21.56
69689;BME280;56932;38.402;-96.176;2023-04-23T01:01:48;97906.31;;;22.72;21.22
69689;BME280;56932;38.402;-96.176;2023-04-23T01:04:15;97908.88;;;21.72;21.42
69689;BME280;56932;38.402;-96.176;2023-04-23T01:06:39;97914.59;;;22.17;21.51
69689;BME280;56932;38.402;-96.176;2023-04-23T01:09:04;97916.25;;;22.37;21.29
69689;BME280;56932;38.402;-96.176;2023-04-23T01:11:30;97919.33;;;22.18;21.35
69689;BME280;56932;38.402;-96.176;2023-04-23T01:13:55;97922.34;;;22.34;21.18
69689;BME280;56932;38.402;-96.176;2023-04-23T01:16:21;97927.90;;;22.06;21.27
69689;BME280;56932;38.402;-96.176;2023-04-23T01:18:46;97928.54;;;22.64;20.98
69689;BME280;56932;38.402;-96.176;2023-04-23T01:21:12;97932.26;;;22.63;21.00
69689;BME280;56932;38.402;-96.176;2023-04-23T01:23:37;97935.83;;;22.05;21.47
69689;BME280;56932;38.402;-96.176;2023-04-23T01:26:03;97941.10;;;22.35;21.27
69689;BME280;56932;38.402;-96.176;2023-04-23T01:28:29;97946.06;;;22.92;20.92
69689;BME280;56932;38.402;-96.176;2023-04-23T01:30:54;97945.23;;;22.09;21.63
69689;BME280;56932;38.402;-96.176;2023-04-23T01:33:20;97948.57;;;21.64;21.94
69689;BME280;56932;38.402;-96.176;2023-04-23T01:35:46;97951.31;;;22.76;21.13
69689;BME280;56932;38.402;-96.176;2023-04-23T01:38:11;97952.98;;;21.14;21.42
69689;BME280;56932;38.402;-96.176;2023-04-23T01:40:36;97955.87;;;22.51;20.95
69689;BME280;56932;38.402;-96.176;2023-04-23T01:43:01;97955.64;;;22.16;21.18
69689;BME280;56932;38.402;-96.176;2023-04-23T01:45:27;97959.99;;;21.80;21.70
69689;BME280;56932;38.402;-96.176;2023-04-23T01:47:52;97963.05;;;22.96;20.98
69689;BME280;56932;38.402;-96.176;2023-04-23T01:50:18;97967.67;;;21.40;21.68
69689;BME280;56932;38.402;-96.176;2023-04-23T01:52:43;97970.98;;;22.42;21.07
69689;BME280;56932;38.402;-96.176;2023-04-23T01:55:09;97973.01;;;22.15;21.27
69689;BME280;56932;38.402;-96.176;2023-04-23T01:57:34;97977.50;;;22.03;21.41
69689;BME280;56932;38.402;-96.176;2023-04-23T02:00:03;97984.42;;;22.83;21.02
69689;BME280;56932;38.402;-96.176;2023-04-23T02:02:25;97990.11;;;21.85;21.58
69689;BME280;56932;38.402;-96.176;2023-04-23T02:04:51;97999.62;;;21.67;22.09
69689;BME280;56932;38.402;-96.176;2023-04-23T02:07:16;97997.51;;;21.54;22.20
69689;BME280;56932;38.402;-96.176;2023-04-23T02:09:42;97999.15;;;22.19;21.77
69689;BME280;56932;38.402;-96.176;2023-04-23T02:12:07;98002.51;;;21.86;21.47
69689;BME280;56932;38.402;-96.176;2023-04-23T02:14:33;98003.03;;;22.02;21.72
69689;BME280;56932;38.402;-96.176;2023-04-23T02:16:58;98011.34;;;20.82;22.93
69689;BME280;56932;38.402;-96.176;2023-04-23T02:19:24;98015.35;;;21.42;22.46
69689;BME280;56932;38.402;-96.176;2023-04-23T02:21:49;98019.60;;;21.76;21.98
69689;BME280;56932;38.402;-96.176;2023-04-23T02:24:15;98022.39;;;21.04;21.92
69689;BME280;56932;38.402;-96.176;2023-04-23T02:26:40;98023.94;;;21.83;21.88
69689;BME280;56932;38.402;-96.176;2023-04-23T02:29:06;98029.74;;;21.86;22.03
69689;BME280;56932;38.402;-96.176;2023-04-23T02:31:31;98035.33;;;21.46;22.51
69689;BME280;56932;38.402;-96.176;2023-04-23T02:33:57;98039.94;;;21.29;22.53
69689;BME280;56932;38.402;-96.176;2023-04-23T02:36:23;98042.20;;;20.82;22.93
69689;BME280;56932;38.402;-96.176;2023-04-23T02:38:48;98043.56;;;21.51;22.33
69689;BME280;56932;38.402;-96.176;2023-04-23T02:41:14;98048.49;;;21.67;22.19
69689;BME280;56932;38.402;-96.176;2023-04-23T02:43:39;98048.34;;;21.55;22.42
69689;BME280;56932;38.402;-96.176;2023-04-23T02:46:05;98052.08;;;20.60;22.55
69689;BME280;56932;38.402;-96.176;2023-04-23T02:48:30;98052.75;;;21.09;22.39
69689;BME280;56932;38.402;-96.176;2023-04-23T02:50:55;98056.52;;;20.94;22.86
69689;BME280;56932;38.402;-96.176;2023-04-23T02:53:21;98059.62;;;21.61;22.10
69689;BME280;56932;38.402;-96.176;2023-04-23T02:55:46;98059.74;;;20.54;23.04
69689;BME280;56932;38.402;-96.176;2023-04-23T02:58:12;98063.97;;;20.67;22.53
69689;BME280;56932;38.402;-96.176;2023-04-23T03:00:37;98068.14;;;21.07;22.56
69689;BME280;56932;38.402;-96.176;2023-04-23T03:03:03;98071.24;;;20.91;22.74
69689;BME280;56932;38.402;-96.176;2023-04-23T03:05:29;98066.02;;;20.18;23.49
69689;BME280;56932;38.402;-96.176;2023-04-23T03:07:54;98072.66;;;21.46;22.45
69689;BME280;56932;38.402;-96.176;2023-04-23T03:10:20;98073.87;;;20.91;22.55
69689;BME280;56932;38.402;-96.176;2023-04-23T03:12:45;98075.01;;;20.70;23.11
69689;BME280;56932;38.402;-96.176;2023-04-23T03:15:11;98071.32;;;20.97;22.86
69689;BME280;56932;38.402;-96.176;2023-04-23T03:17:36;98069.96;;;20.82;22.84
69689;BME280;56932;38.402;-96.176;2023-04-23T03:20:02;98069.96;;;20.81;23.01
69689;BME280;56932;38.402;-96.176;2023-04-23T03:22:27;98070.70;;;21.41;22.50
69689;BME280;56932;38.402;-96.176;2023-04-23T03:24:53;98071.68;;;20.68;22.94
69689;BME280;56932;38.402;-96.176;2023-04-23T03:27:18;98075.69;;;20.44;23.32
69689;BME280;56932;38.402;-96.176;2023-04-23T03:29:44;98074.59;;;20.72;23.14
69689;BME280;56932;38.402;-96.176;2023-04-23T03:32:10;98075.99;;;20.05;23.10
69689;BME280;56932;38.402;-96.176;2023-04-23T03:34:35;98076.14;;;19.91;23.60
69689;BME280;56932;38.402;-96.176;2023-04-23T03:37:02;98078.25;;;20.38;23.42
69689;BME280;56932;38.402;-96.176;2023-04-23T03:39:26;98084.04;;;20.57;23.08
69689;BME280;56932;38.402;-96.176;2023-04-23T03:41:52;98088.03;;;20.61;23.26
69689;BME280;56932;38.402;-96.176;2023-04-23T03:44:17;98089.41;;;20.87;22.82
69689;BME280;56932;38.402;-96.176;2023-04-23T03:46:42;98091.83;;;21.20;22.96
69689;BME280;56932;38.402;-96.176;2023-04-23T03:49:08;98091.77;;;20.87;23.01
69689;BME280;56932;38.402;-96.176;2023-04-23T03:51:33;98090.74;;;21.11;23.02
69689;BME280;56932;38.402;-96.176;2023-04-23T03:53:59;98086.62;;;20.39;23.61
69689;BME280;56932;38.402;-96.176;2023-04-23T03:56:24;98086.10;;;19.95;23.59
69689;BME280;56932;38.402;-96.176;2023-04-23T03:58:50;98089.95;;;20.52;23.49
69689;BME280;56932;38.402;-96.176;2023-04-23T04:01:16;98089.18;;;20.47;23.57
69689;BME280;56932;38.402;-96.176;2023-04-23T04:03:41;98091.91;;;20.34;23.63
69689;BME280;56932;38.402;-96.176;2023-04-23T04:06:07;98095.70;;;20.13;23.25
69689;BME280;56932;38.402;-96.176;2023-04-23T04:08:32;98096.79;;;20.73;23.10
69689;BME280;56932;38.402;-96.176;2023-04-23T04:10:58;98097.98;;;20.76;23.05
69689;BME280;56932;38.402;-96.176;2023-04-23T04:13:23;98093.33;;;20.68;23.36
69689;BME280;56932;38.402;-96.176;2023-04-23T04:15:49;98097.65;;;20.63;23.40
69689;BME280;56932;38.402;-96.176;2023-04-23T04:18:15;98098.02;;;19.69;23.36
69689;BME280;56932;38.402;-96.176;2023-04-23T04:20:40;98101.68;;;20.16;23.60
69689;BME280;56932;38.402;-96.176;2023-04-23T04:23:06;98102.05;;;20.69;23.36
69689;BME280;56932;38.402;-96.176;2023-04-23T04:25:31;98106.15;;;19.86;23.86
69689;BME280;56932;38.402;-96.176;2023-04-23T04:27:56;98111.09;;;19.91;24.06
69689;BME280;56932;38.402;-96.176;2023-04-23T04:30:22;98114.51;;;19.85;23.89
69689;BME280;56932;38.402;-96.176;2023-04-23T04:32:47;98117.62;;;19.50;24.17
69689;BME280;56932;38.402;-96.176;2023-04-23T04:35:13;98118.99;;;20.27;23.72
69689;BME280;56932;38.402;-96.176;2023-04-23T04:37:39;98117.26;;;20.18;23.76
69689;BME280;56932;38.402;-96.176;2023-04-23T04:40:05;98120.87;;;19.89;23.76
69689;BME280;56932;38.402;-96.176;2023-04-23T04:42:29;98120.64;;;19.17;24.44
69689;BME280;56932;38.402;-96.176;2023-04-23T04:44:55;98122.11;;;20.24;23.78
69689;BME280;56932;38.402;-96.176;2023-04-23T04:47:20;98122.85;;;20.21;23.78
69689;BME280;56932;38.402;-96.176;2023-04-23T04:49:46;98124.87;;;20.23;23.71
69689;BME280;56932;38.402;-96.176;2023-04-23T04:52:12;98123.61;;;19.39;23.84
69689;BME280;56932;38.402;-96.176;2023-04-23T04:54:37;98127.39;;;20.14;23.59
69689;BME280;56932;38.402;-96.176;2023-04-23T04:57:02;98124.37;;;20.58;23.45
69689;BME280;56932;38.402;-96.176;2023-04-23T04:59:28;98126.34;;;20.14;23.57
69689;BME280;56932;38.402;-96.176;2023-04-23T05:01:53;98124.16;;;19.97;23.08
69689;BME280;56932;38.402;-96.176;2023-04-23T05:04:19;98128.16;;;20.02;23.47
69689;BME280;56932;38.402;-96.176;2023-04-23T05:06:44;98132.55;;;20.25;23.71
69689;BME280;56932;38.402;-96.176;2023-04-23T05:09:10;98132.99;;;20.54;23.45
69689;BME280;56932;38.402;-96.176;2023-04-23T05:11:35;98135.28;;;20.30;23.65
69689;BME280;56932;38.402;-96.176;2023-04-23T05:14:01;98137.11;;;20.30;23.68
69689;BME280;56932;38.402;-96.176;2023-04-23T05:16:26;98139.95;;;19.99;23.66
69689;BME280;56932;38.402;-96.176;2023-04-23T05:18:51;98139.69;;;19.86;23.98
69689;BME280;56932;38.402;-96.176;2023-04-23T05:21:17;98138.48;;;19.39;24.42
69689;BME280;56932;38.402;-96.176;2023-04-23T05:23:42;98138.68;;;19.85;24.19
69689;BME280;56932;38.402;-96.176;2023-04-23T05:26:08;98140.84;;;19.64;23.75
69689;BME280;56932;38.402;-96.176;2023-04-23T05:28:33;98144.94;;;20.37;23.52
69689;BME280;56932;38.402;-96.176;2023-04-23T05:30:59;98139.72;;;19.93;23.93
69689;BME280;56932;38.402;-96.176;2023-04-23T05:33:25;98139.61;;;20.12;23.72
69689;BME280;56932;38.402;-96.176;2023-04-23T05:35:50;98142.79;;;20.43;23.43
69689;BME280;56932;38.402;-96.176;2023-04-23T05:38:15;98143.67;;;19.82;23.56
69689;BME280;56932;38.402;-96.176;2023-04-23T05:40:41;98140.29;;;20.12;23.67
69689;BME280;56932;38.402;-96.176;2023-04-23T05:43:06;98141.50;;;20.23;23.58
69689;BME280;56932;38.402;-96.176;2023-04-23T05:45:32;98141.19;;;20.51;23.32
69689;BME280;56932;38.402;-96.176;2023-04-23T05:47:57;98140.97;;;20.35;23.83
69689;BME280;56932;38.402;-96.176;2023-04-23T05:50:23;98141.14;;;19.10;24.54
69689;BME280;56932;38.402;-96.176;2023-04-23T05:52:49;98140.21;;;18.84;24.80
69689;BME280;56932;38.402;-96.176;2023-04-23T05:55:14;98144.24;;;20.35;23.67
69689;BME280;56932;38.402;-96.176;2023-04-23T05:57:40;98145.87;;;20.17;23.60
69689;BME280;56932;38.402;-96.176;2023-04-23T06:00:07;98146.03;;;19.64;23.63
69689;BME280;56932;38.402;-96.176;2023-04-23T06:02:31;98145.64;;;20.07;23.63
69689;BME280;56932;38.402;-96.176;2023-04-23T06:04:56;98148.30;;;19.89;23.87
69689;BME280;56932;38.402;-96.176;2023-04-23T06:07:22;98149.69;;;19.22;23.54
69689;BME280;56932;38.402;-96.176;2023-04-23T06:09:47;98150.76;;;20.40;23.35
69689;BME280;56932;38.402;-96.176;2023-04-23T06:12:13;98151.20;;;19.18;23.80
69689;BME280;56932;38.402;-96.176;2023-04-23T06:14:38;98152.26;;;20.27;23.46
69689;BME280;56932;38.402;-96.176;2023-04-23T06:17:04;98148.52;;;20.14;23.54
69689;BME280;56932;38.402;-96.176;2023-04-23T06:19:29;98148.32;;;19.58;24.25
69689;BME280;56932;38.402;-96.176;2023-04-23T06:21:55;98148.22;;;19.87;23.98
69689;BME280;56932;38.402;-96.176;2023-04-23T06:24:20;98147.13;;;19.82;23.63
69689;BME280;56932;38.402;-96.176;2023-04-23T06:26:45;98144.16;;;19.93;23.94
69689;BME280;56932;38.402;-96.176;2023-04-23T06:29:11;98143.94;;;20.03;24.03
69689;BME280;56932;38.402;-96.176;2023-04-23T06:31:37;98141.53;;;19.90;23.92
69689;BME280;56932;38.402;-96.176;2023-04-23T06:34:03;98140.57;;;19.93;23.69
69689;BME280;56932;38.402;-96.176;2023-04-23T06:36:28;98140.16;;;19.68;23.88
69689;BME280;56932;38.402;-96.176;2023-04-23T06:38:53;98142.16;;;19.89;23.90
69689;BME280;56932;38.402;-96.176;2023-04-23T06:41:19;98145.96;;;20.45;23.61
69689;BME280;56932;38.402;-96.176;2023-04-23T06:43:44;98140.95;;;20.17;23.82
69689;BME280;56932;38.402;-96.176;2023-04-23T06:46:10;98142.96;;;19.19;23.86
69689;BME280;56932;38.402;-96.176;2023-04-23T06:48:35;98142.91;;;19.51;24.00
69689;BME280;56932;38.402;-96.176;2023-04-23T06:51:01;98140.50;;;20.09;23.66
69689;BME280;56932;38.402;-96.176;2023-04-23T06:53:27;98139.91;;;20.11;23.83
69689;BME280;56932;38.402;-96.176;2023-04-23T06:55:52;98137.76;;;19.93;23.95
69689;BME280;56932;38.402;-96.176;2023-04-23T06:58:18;98139.59;;;19.19;24.04
69689;BME280;56932;38.402;-96.176;2023-04-23T07:00:43;98134.62;;;20.04;23.67
69689;BME280;56932;38.402;-96.176;2023-04-23T07:03:09;98133.51;;;19.84;23.64
69689;BME280;56932;38.402;-96.176;2023-04-23T07:05:34;98133.07;;;20.46;23.48
69689;BME280;56932;38.402;-96.176;2023-04-23T07:08:00;98131.03;;;19.78;24.10
69689;BME280;56932;38.402;-96.176;2023-04-23T07:10:25;98130.02;;;19.26;24.20
69689;BME280;56932;38.402;-96.176;2023-04-23T07:12:51;98126.39;;;19.23;24.35
69689;BME280;56932;38.402;-96.176;2023-04-23T07:15:16;98122.09;;;19.44;24.19
69689;BME280;56932;38.402;-96.176;2023-04-23T07:17:42;98118.99;;;18.99;24.58
69689;BME280;56932;38.402;-96.176;2023-04-23T07:20:08;98119.42;;;19.00;23.91
69689;BME280;56932;38.402;-96.176;2023-04-23T07:22:33;98117.10;;;19.58;23.81
69689;BME280;56932;38.402;-96.176;2023-04-23T07:24:59;98114.29;;;19.63;23.98
69689;BME280;56932;38.402;-96.176;2023-04-23T07:27:24;98114.12;;;20.05;23.59
69689;BME280;56932;38.402;-96.176;2023-04-23T07:29:49;98112.69;;;19.51;24.04
69689;BME280;56932;38.402;-96.176;2023-04-23T07:32:15;98113.84;;;18.38;23.97
69689;BME280;56932;38.402;-96.176;2023-04-23T07:34:41;98114.04;;;19.79;23.79
69689;BME280;56932;38.402;-96.176;2023-04-23T07:37:06;98110.73;;;20.30;23.58
69689;BME280;56932;38.402;-96.176;2023-04-23T07:39:32;98109.45;;;19.71;24.02
69689;BME280;56932;38.402;-96.176;2023-04-23T07:41:57;98109.36;;;19.83;23.93
69689;BME280;56932;38.402;-96.176;2023-04-23T07:44:23;98106.66;;;19.15;24.12
69689;BME280;56932;38.402;-96.176;2023-04-23T07:46:48;98104.95;;;19.74;23.99
69689;BME280;56932;38.402;-96.176;2023-04-23T07:49:14;98103.33;;;19.60;24.15
69689;BME280;56932;38.402;-96.176;2023-04-23T07:51:40;98101.03;;;19.48;24.24
69689;BME280;56932;38.402;-96.176;2023-04-23T07:54:05;98097.10;;;19.02;24.21
69689;BME280;56932;38.402;-96.176;2023-04-23T07:56:30;98097.97;;;19.20;24.22
69689;BME280;56932;38.402;-96.176;2023-04-23T07:58:55;98096.05;;;19.37;24.09
69689;BME280;56932;38.402;-96.176;2023-04-23T08:01:21;98096.39;;;19.62;24.03
69689;BME280;56932;38.402;-96.176;2023-04-23T08:03:47;98097.09;;;19.47;24.13
69689;BME280;56932;38.402;-96.176;2023-04-23T08:06:12;98103.78;;;18.83;24.30
69689;BME280;56932;38.402;-96.176;2023-04-23T08:08:38;98099.62;;;18.64;24.87
69689;BME280;56932;38.402;-96.176;2023-04-23T08:11:04;98105.81;;;19.41;24.43
69689;BME280;56932;38.402;-96.176;2023-04-23T08:13:29;98109.61;;;19.72;24.12
69689;BME280;56932;38.402;-96.176;2023-04-23T08:15:54;98110.04;;;19.69;24.14
69689;BME280;56932;38.402;-96.176;2023-04-23T08:18:20;98105.95;;;18.72;24.38
69689;BME280;56932;38.402;-96.176;2023-04-23T08:20:45;98106.25;;;19.68;23.89
69689;BME280;56932;38.402;-96.176;2023-04-23T08:23:11;98106.59;;;19.17;24.12
69689;BME280;56932;38.402;-96.176;2023-04-23T08:25:36;98106.91;;;19.63;24.12
69689;BME280;56932;38.402;-96.176;2023-04-23T08:28:02;98109.33;;;19.24;24.25
69689;BME280;56932;38.402;-96.176;2023-04-23T08:30:27;98107.27;;;19.05;24.22
69689;BME280;56932;38.402;-96.176;2023-04-23T08:32:53;98108.05;;;19.16;24.34
69689;BME280;56932;38.402;-96.176;2023-04-23T08:35:18;98110.79;;;19.68;24.13
69689;BME280;56932;38.402;-96.176;2023-04-23T08:37:43;98106.46;;;19.57;24.00
69689;BME280;56932;38.402;-96.176;2023-04-23T08:40:10;98108.24;;;18.70;24.15
69689;BME280;56932;38.402;-96.176;2023-04-23T08:42:40;98108.74;;;19.00;24.14
69689;BME280;56932;38.402;-96.176;2023-04-23T08:45:00;98109.99;;;19.48;24.05
69689;BME280;56932;38.402;-96.176;2023-04-23T08:47:28;98109.83;;;19.23;24.10
69689;BME280;56932;38.402;-96.176;2023-04-23T08:49:53;98109.78;;;19.39;24.13
69689;BME280;56932;38.402;-96.176;2023-04-23T08:52:22;98110.85;;;18.26;24.32
69689;BME280;56932;38.402;-96.176;2023-04-23T08:54:52;98111.21;;;19.36;24.17
69689;BME280;56932;38.402;-96.176;2023-04-23T08:57:08;98110.38;;;19.57;23.98
69689;BME280;56932;38.402;-96.176;2023-04-23T08:59:33;98112.68;;;19.34;24.18
69689;BME280;56932;38.402;-96.176;2023-04-23T09:01:58;98111.64;;;19.21;24.50
69689;BME280;56932;38.402;-96.176;2023-04-23T09:04:24;98114.38;;;18.77;24.24
69689;BME280;56932;38.402;-96.176;2023-04-23T09:06:49;98117.45;;;19.28;24.20
69689;BME280;56932;38.402;-96.176;2023-04-23T09:09:15;98120.36;;;19.33;24.36
69689;BME280;56932;38.402;-96.176;2023-04-23T09:11:41;98123.49;;;19.09;24.36
69689;BME280;56932;38.402;-96.176;2023-04-23T09:14:06;98120.90;;;18.12;24.85
69689;BME280;56932;38.402;-96.176;2023-04-23T09:16:31;98123.01;;;18.75;24.45
69689;BME280;56932;38.402;-96.176;2023-04-23T09:18:58;98128.53;;;19.29;24.20
69689;BME280;56932;38.402;-96.176;2023-04-23T09:21:22;98126.80;;;19.12;24.34
69689;BME280;56932;38.402;-96.176;2023-04-23T09:23:50;98126.10;;;18.97;24.46
69689;BME280;56932;38.402;-96.176;2023-04-23T09:26:18;98123.78;;;18.46;24.52
69689;BME280;56932;38.402;-96.176;2023-04-23T09:28:39;98128.86;;;19.23;24.22
69689;BME280;56932;38.402;-96.176;2023-04-23T09:31:05;98129.79;;;18.75;24.62
69689;BME280;56932;38.402;-96.176;2023-04-23T09:33:33;98131.08;;;19.39;24.27
69689;BME280;56932;38.402;-96.176;2023-04-23T09:35:55;98132.22;;;19.00;24.40
69689;BME280;56932;38.402;-96.176;2023-04-23T09:38:21;98133.08;;;18.20;24.45
69689;BME280;56932;38.402;-96.176;2023-04-23T09:40:46;98135.97;;;18.25;25.05
69689;BME280;56932;38.402;-96.176;2023-04-23T09:43:12;98134.05;;;18.90;24.46
69689;BME280;56932;38.402;-96.176;2023-04-23T09:48:04;98132.87;;;19.16;24.46
69689;BME280;56932;38.402;-96.176;2023-04-23T09:50:33;98135.71;;;18.92;24.68
69689;BME280;56932;38.402;-96.176;2023-04-23T09:52:54;98137.81;;;19.80;24.14
69689;BME280;56932;38.402;-96.176;2023-04-23T09:55:28;98132.20;;;18.89;24.48
69689;BME280;56932;38.402;-96.176;2023-04-23T09:57:46;98135.02;;;18.88;24.44
69689;BME280;56932;38.402;-96.176;2023-04-23T10:00:14;98133.70;;;18.11;24.48
69689;BME280;56932;38.402;-96.176;2023-04-23T10:02:37;98129.47;;;18.63;24.45
69689;BME280;56932;38.402;-96.176;2023-04-23T10:07:28;98131.59;;;19.17;24.15
69689;BME280;56932;38.402;-96.176;2023-04-23T10:09:53;98128.20;;;19.18;24.34
69689;BME280;56932;38.402;-96.176;2023-04-23T10:12:19;98129.34;;;18.89;24.38
69689;BME280;56932;38.402;-96.176;2023-04-23T10:14:45;98131.94;;;18.69;24.56
69689;BME280;56932;38.402;-96.176;2023-04-23T10:17:10;98130.58;;;18.35;24.85
69689;BME280;56932;38.402;-96.176;2023-04-23T10:19:37;98126.43;;;18.81;24.43
69689;BME280;56932;38.402;-96.176;2023-04-23T10:22:03;98120.31;;;18.77;24.41
69689;BME280;56932;38.402;-96.176;2023-04-23T10:24:28;98120.16;;;18.58;24.39
69689;BME280;56932;38.402;-96.176;2023-04-23T10:26:53;98121.54;;;18.64;24.34
69689;BME280;56932;38.402;-96.176;2023-04-23T10:29:20;98123.25;;;18.22;25.14
69689;BME280;56932;38.402;-96.176;2023-04-23T10:31:43;98119.60;;;18.73;24.46
69689;BME280;56932;38.402;-96.176;2023-04-23T10:34:10;98118.03;;;18.42;24.33
69689;BME280;56932;38.402;-96.176;2023-04-23T10:36:34;98112.66;;;19.02;24.43
69689;BME280;56932;38.402;-96.176;2023-04-23T10:38:59;98111.40;;;18.85;24.59
69689;BME280;56932;38.402;-96.176;2023-04-23T10:41:32;98105.58;;;18.85;24.55
69689;BME280;56932;38.402;-96.176;2023-04-23T10:43:52;98106.76;;;18.50;24.84
69689;BME280;56932;38.402;-96.176;2023-04-23T10:51:07;98098.89;;;18.96;24.41
69689;BME280;56932;38.402;-96.176;2023-04-23T10:53:32;98104.82;;;18.87;24.70
69689;BME280;56932;38.402;-96.176;2023-04-23T10:56:05;98106.78;;;18.61;24.94
69689;BME280;56932;38.402;-96.176;2023-04-23T10:58:23;98105.72;;;18.59;24.50
69689;BME280;56932;38.402;-96.176;2023-04-23T11:00:48;98106.78;;;18.57;24.75
69689;BME280;56932;38.402;-96.176;2023-04-23T11:05:39;98110.27;;;18.76;24.58
69689;BME280;56932;38.402;-96.176;2023-04-23T11:08:06;98109.51;;;18.26;24.80
69689;BME280;56932;38.402;-96.176;2023-04-23T11:10:31;98107.87;;;18.45;24.41
69689;BME280;56932;38.402;-96.176;2023-04-23T11:12:57;98109.40;;;18.62;24.47
69689;BME280;56932;38.402;-96.176;2023-04-23T11:15:23;98112.55;;;18.05;24.97
69689;BME280;56932;38.402;-96.176;2023-04-23T11:20:18;98118.31;;;17.62;24.72
69689;BME280;56932;38.402;-96.176;2023-04-23T11:22:40;98121.29;;;18.75;24.56
69689;BME280;56932;38.402;-96.176;2023-04-23T11:25:08;98120.29;;;19.11;24.44
69689;BME280;56932;38.402;-96.176;2023-04-23T11:27:30;98124.70;;;18.63;24.86
69689;BME280;56932;38.402;-96.176;2023-04-23T11:29:55;98128.33;;;18.65;24.63
69689;BME280;56932;38.402;-96.176;2023-04-23T11:32:21;98132.17;;;17.85;24.70
69689;BME280;56932;38.402;-96.176;2023-04-23T11:34:47;98134.91;;;18.34;24.72
69689;BME280;56932;38.402;-96.176;2023-04-23T11:37:13;98136.72;;;18.71;24.53
69689;BME280;56932;38.402;-96.176;2023-04-23T11:39:38;98135.12;;;19.03;24.41
69689;BME280;56932;38.402;-96.176;2023-04-23T11:42:03;98135.17;;;18.73;24.68
69689;BME280;56932;38.402;-96.176;2023-04-23T11:44:28;98135.80;;;18.29;24.62
69689;BME280;56932;38.402;-96.176;2023-04-23T11:46:53;98136.02;;;19.14;24.30
69689;BME280;56932;38.402;-96.176;2023-04-23T11:49:19;98139.84;;;18.18;25.15
69689;BME280;56932;38.402;-96.176;2023-04-23T11:51:44;98141.86;;;18.36;24.98
69689;BME280;56932;38.402;-96.176;2023-04-23T11:54:11;98143.98;;;17.61;25.21
69689;BME280;56932;38.402;-96.176;2023-04-23T11:56:35;98141.57;;;18.69;24.66
69689;BME280;56932;38.402;-96.176;2023-04-23T11:59:01;98143.59;;;18.72;24.65
69689;BME280;56932;38.402;-96.176;2023-04-23T12:01:26;98144.10;;;18.60;24.75
69689;BME280;56932;38.402;-96.176;2023-04-23T12:03:52;98146.44;;;18.52;24.80
69689;BME280;56932;38.402;-96.176;2023-04-23T12:06:17;98145.88;;;17.80;24.63
69689;BME280;56932;38.402;-96.176;2023-04-23T12:08:45;98148.08;;;18.37;24.79
69689;BME280;56932;38.402;-96.176;2023-04-23T12:11:13;98150.34;;;18.77;24.57
69689;BME280;56932;38.402;-96.176;2023-04-23T12:13:39;98157.46;;;18.38;24.93
69689;BME280;56932;38.402;-96.176;2023-04-23T12:16:02;98161.47;;;18.62;24.76
69689;BME280;56932;38.402;-96.176;2023-04-23T12:18:28;98166.60;;;17.84;25.00
69689;BME280;56932;38.402;-96.176;2023-04-23T12:20:51;98169.72;;;18.26;25.07
69689;BME280;56932;38.402;-96.176;2023-04-23T12:23:17;98173.77;;;18.30;25.05
69689;BME280;56932;38.402;-96.176;2023-04-23T12:25:44;98179.51;;;18.27;25.03
69689;BME280;56932;38.402;-96.176;2023-04-23T12:28:10;98181.63;;;18.16;24.72
69689;BME280;56932;38.402;-96.176;2023-04-23T12:30:42;98187.44;;;18.25;24.61
69689;BME280;56932;38.402;-96.176;2023-04-23T12:33:03;98191.70;;;18.38;24.94
69689;BME280;56932;38.402;-96.176;2023-04-23T12:37:51;98201.67;;;17.75;25.51
69689;BME280;56932;38.402;-96.176;2023-04-23T12:40:18;98203.35;;;17.28;25.10
69689;BME280;56932;38.402;-96.176;2023-04-23T12:42:45;98205.07;;;18.25;25.07
69689;BME280;56932;38.402;-96.176;2023-04-23T12:45:08;98206.63;;;18.15;25.22
69689;BME280;56932;38.402;-96.176;2023-04-23T12:47:32;98208.36;;;17.69;25.35